world map with SKT marked

SKT - Airport

This information may not be accurate or current and is not valid for navigation or flight planning. No warranty of fitness for any purpose is made or implied.

flag of Punjabflag of Pakistan

Donate via PayPal

Additional information is available on the NEW Great Circle Mapper

Location
City:  Sialkot, Punjab, Pakistan
Name:Sialkot International Airport
ICAO / IATA:OPST / SKT

Details
Type:Airport (Aerodrome, Airfield)
Latitude:32°30'52"N (32.514444)
Longitude:74°31'44"E (74.528889)
Runways:1
Longest:2133 ft (650 m)

Time
Timezone:UTC+5 (DST+7)
Local Time:

Weather
METAR:OPST  041400Z 00000KT 4000 FU SCT040 BKN100 16/10 Q1019 NOSIG RH69
TAF:OPST  (expired)

Related Locations
Nearby:
Farthest:IPC: 11996 mi / 19306 km
Easter Island (Isla de Pascua, Rapa Nui) [Mataveri Intl], VS, CL

Find:

   beyond  
but within

Other Information
Maps:
Sources:

  


 


Great Circle Mapper   Great Circle Mapper
Great Circle Mapper FAQ   Great Circle Mapper FAQ
  Karl's Home Page
KLSē   KLSē Home
   GC on Facebook
Airlines of the World   Airlines of the World
Donate via PayPal


Copyright © 2004-2022, Karl L. Swartz. All rights reserved.
All trademarks mentioned herein belong to their respective owners.

Please see credits for attribution and copyright information.

Karl Swartz <karl@kls2.com>
  Powered by FreeBSD
Valid HTML 4.01!
Labeled with ICRA
hCard Microformat
Geo Microformat